Vigo Park, Texas
Current Conditions -  °F | °C
As of 1:55 AM on Wednesday 26 Nov 2014 (Local Time) from KPVW Reporting Station
Clear Clear  
Wind Chill: 28°   Ceiling: Unl
Heat Index: 35°   Visibility: 10mi
Dew Point: 18°   Wind: 8mph
Humidity: 50%   Direction: 280°W
Pressure: 30.02"   Gusts: NA
Location:  34.5509°N, 101.748°W
Report Text: KPVW 260755Z AUTO 28007KT 10SM CLR 02/M08 A3002 RMK AO2 T00151080
Loading
Personal Weather Stations






























Interactive Weather Map New forecast layout! Learn more

10-Day Weather Forecast

Advertisements
Track Severe Weather on mobile